Emeryville, New York
Current Conditions -  °F | °C
As of 3:58 AM on Friday 24 Oct 2014 (Local Time) from KGTB Reporting Station
Overcast Overcast  
Wind Chill: 44°   Ceiling: 5500
Heat Index: 44°   Visibility: 10mi
Dew Point: 43°   Wind: 3mph
Humidity: 97%   Direction: 320°NW
Pressure: 29.93"   Gusts: NA
Location:  44.3309°N, 75.4775°W
Report Text: KGTB 240758Z AUTO 32003KT 10SM BKN055 OVC085 07/06 A2993 RMK AO2 SLP139 T00650060
Loading
Personal Weather Stations






























Interactive Weather Map
Tropical Storm Tracking
New forecast layout! Learn more

10-Day Weather Forecast

Advertisements
Track Severe Weather on mobile